Time;durP1;ratioP1;P1;durP2;ratioP2;P2;SDS_P1;SDS_P2;PMS_P1;PMS_P2;Temp;Humidity;BMP_temperature;BMP_pressure;BME280_temperature;BME280_humidity;BME280_pressure;Samples;Min_cycle;Max_cycle;Signal;HPM_P1;HPM_P2
2022/06/30 00:00:54;;;;;;;;;;;29.60;41.70;;;;;;5060567;28;977;-41
2022/06/30 00:03:21;;;;;;;;;;;29.50;41.60;;;;;;5060472;28;954;-38
2022/06/30 00:05:49;;;;;;;;;;;29.60;42.80;;;;;;5060840;28;991;-39
2022/06/30 00:08:16;;;;;;;;;;;29.50;41.70;;;;;;5060156;28;949;-40
2022/06/30 00:10:43;;;;;;;;;;;29.50;41.60;;;;;;5060586;28;1014;-41
2022/06/30 00:13:10;;;;;;;;;;;29.50;41.60;;;;;;5059871;28;1898;-43
2022/06/30 00:15:38;;;;;;;;;;;29.50;41.60;;;;;;5060813;28;961;-40
2022/06/30 00:18:05;;;;;;;;;;;29.60;41.60;;;;;;5060391;28;1060;-40
2022/06/30 00:20:32;;;;;;;;;;;29.60;41.30;;;;;;5060883;28;969;-39
2022/06/30 00:23:00;;;;;;;;;;;29.50;41.40;;;;;;5061215;28;1000;-39
2022/06/30 00:25:27;;;;;;;;;;;29.50;41.60;;;;;;5060598;28;997;-39
2022/06/30 00:27:54;;;;;;;;;;;29.50;41.60;;;;;;5060442;28;950;-38
2022/06/30 00:30:20;;;;;;;;;;;29.50;41.50;;;;;;5060701;28;1035;-37
2022/06/30 00:32:47;;;;;;;;;;;29.40;41.60;;;;;;5060881;28;1979;-34
2022/06/30 00:35:14;;;;;;;;;;;29.40;41.60;;;;;;5060190;28;966;-35
2022/06/30 00:37:41;;;;;;;;;;;29.40;41.70;;;;;;5060493;28;1014;-34
2022/06/30 00:40:10;;;;;;;;;;;29.40;41.90;;;;;;5060553;28;1003;-34
2022/06/30 00:42:36;;;;;;;;;;;29.40;41.90;;;;;;5060143;28;954;-35
2022/06/30 00:45:04;;;;;;;;;;;29.40;42.00;;;;;;5060397;28;988;-35
2022/06/30 00:47:31;;;;;;;;;;;29.40;42.10;;;;;;5060185;28;978;-35
2022/06/30 00:49:57;;;;;;;;;;;29.40;42.10;;;;;;5060313;28;988;-35
2022/06/30 00:52:25;;;;;;;;;;;29.40;42.20;;;;;;5060131;28;1902;-34
2022/06/30 00:54:53;;;;;;;;;;;29.30;42.20;;;;;;5060291;28;972;-35
2022/06/30 00:57:22;;;;;;;;;;;29.30;42.20;;;;;;5059615;28;1016;-35
2022/06/30 00:59:50;;;;;;;;;;;29.30;42.20;;;;;;5059889;28;981;-35
2022/06/30 01:02:17;;;;;;;;;;;29.30;42.20;;;;;;5059574;28;942;-34
2022/06/30 01:04:44;;;;;;;;;;;29.30;42.20;;;;;;5059711;28;1013;-35
2022/06/30 01:07:11;;;;;;;;;;;29.40;42.20;;;;;;5060087;28;1021;-35
2022/06/30 01:15:09;;;;;;;;;;;29.50;42.00;;;;;;5058212;28;1050;-35
2022/06/30 01:17:36;;;;;;;;;;;29.50;42.00;;;;;;5059624;28;1009;-38
2022/06/30 01:20:03;;;;;;;;;;;29.40;42.00;;;;;;5059566;28;954;-36
2022/06/30 01:22:31;;;;;;;;;;;29.30;42.10;;;;;;5059283;28;949;-35
2022/06/30 01:24:58;;;;;;;;;;;29.30;42.10;;;;;;5059398;28;1016;-35
2022/06/30 01:27:25;;;;;;;;;;;29.40;42.20;;;;;;5059278;28;1029;-35
2022/06/30 01:29:52;;;;;;;;;;;29.30;42.10;;;;;;5059325;28;1028;-36
2022/06/30 01:32:19;;;;;;;;;;;29.30;42.20;;;;;;5059070;28;1898;-35
2022/06/30 01:34:46;;;;;;;;;;;29.30;42.40;;;;;;5059550;28;1087;-36
2022/06/30 01:37:13;;;;;;;;;;;29.20;42.30;;;;;;5059363;28;1016;-36
2022/06/30 01:39:42;;;;;;;;;;;29.30;42.40;;;;;;5059273;28;996;-35
2022/06/30 01:42:09;;;;;;;;;;;29.20;42.50;;;;;;5059736;28;973;-35
2022/06/30 01:44:35;;;;;;;;;;;29.20;42.50;;;;;;5058836;28;1009;-35
2022/06/30 01:47:02;;;;;;;;;;;29.20;42.50;;;;;;5058755;28;962;-36
2022/06/30 01:49:29;;;;;;;;;;;29.10;42.50;;;;;;5058688;28;1060;-35
2022/06/30 01:51:56;;;;;;;;;;;29.20;42.40;;;;;;5058645;28;907;-37
2022/06/30 01:54:23;;;;;;;;;;;29.30;42.20;;;;;;5057830;28;1894;-36
2022/06/30 01:56:51;;;;;;;;;;;29.30;42.20;;;;;;5058931;28;914;-37
2022/06/30 01:59:18;;;;;;;;;;;29.30;42.20;;;;;;5059091;28;996;-36
2022/06/30 02:01:45;;;;;;;;;;;29.30;42.10;;;;;;5058770;28;1057;-35
2022/06/30 02:06:55;;;;;;;;;;;29.30;42.00;;;;;;5058174;28;655;-36
2022/06/30 02:09:22;;;;;;;;;;;29.30;42.00;;;;;;5058958;28;988;-35
2022/06/30 02:12:44;;;;;;;;;;;29.20;42.10;;;;;;5058951;28;980;-36
2022/06/30 02:14:37;;;;;;;;;;;29.20;42.00;;;;;;5058546;28;1639;-35
2022/06/30 02:17:04;;;;;;;;;;;29.20;42.10;;;;;;5058830;28;925;-37
2022/06/30 02:19:31;;;;;;;;;;;29.20;42.00;;;;;;5058149;28;1118;-36
2022/06/30 02:21:57;;;;;;;;;;;29.20;42.00;;;;;;5058456;28;946;-36
2022/06/30 02:24:24;;;;;;;;;;;29.20;42.00;;;;;;5058403;28;1072;-36
2022/06/30 02:26:51;;;;;;;;;;;29.30;42.00;;;;;;5058012;28;1025;-35
2022/06/30 02:29:18;;;;;;;;;;;29.30;43.00;;;;;;5058440;28;1068;-36
2022/06/30 02:31:46;;;;;;;;;;;29.20;41.90;;;;;;5058125;28;938;-36
2022/06/30 02:34:13;;;;;;;;;;;29.20;41.90;;;;;;5058238;28;1985;-36
2022/06/30 02:36:39;;;;;;;;;;;29.20;41.90;;;;;;5058276;28;977;-35
2022/06/30 02:39:06;;;;;;;;;;;29.20;41.90;;;;;;5058292;28;957;-38
2022/06/30 02:41:33;;;;;;;;;;;29.20;41.90;;;;;;5057990;28;977;-38
2022/06/30 02:44:01;;;;;;;;;;;29.30;41.90;;;;;;5057977;28;982;-38
2022/06/30 02:46:28;;;;;;;;;;;29.30;41.80;;;;;;5058061;28;1013;-40
2022/06/30 02:48:57;;;;;;;;;;;29.20;41.80;;;;;;5057883;28;1012;-37
2022/06/30 02:51:23;;;;;;;;;;;29.20;41.90;;;;;;5058588;28;954;-41
2022/06/30 02:53:50;;;;;;;;;;;29.30;41.80;;;;;;5057488;28;1902;-39
2022/06/30 02:56:17;;;;;;;;;;;29.30;41.90;;;;;;5057762;28;969;-38
2022/06/30 02:58:44;;;;;;;;;;;29.20;41.90;;;;;;5057907;28;1030;-38
2022/06/30 03:01:10;;;;;;;;;;;29.30;41.70;;;;;;5057726;28;977;-39
2022/06/30 03:03:37;;;;;;;;;;;29.30;41.70;;;;;;5058000;28;914;-39
2022/06/30 03:06:05;;;;;;;;;;;29.30;41.80;;;;;;5057966;28;973;-40
2022/06/30 03:08:33;;;;;;;;;;;29.30;41.70;;;;;;5058075;28;1004;-38
2022/06/30 03:10:59;;;;;;;;;;;29.30;41.90;;;;;;5057013;28;1188;-37
2022/06/30 03:13:27;;;;;;;;;;;29.30;41.90;;;;;;5057556;28;1902;-38
2022/06/30 03:15:53;;;;;;;;;;;29.30;41.90;;;;;;5057794;28;839;-40
2022/06/30 03:18:20;;;;;;;;;;;29.30;41.90;;;;;;5057655;28;934;-40
2022/06/30 03:20:47;;;;;;;;;;;29.20;42.10;;;;;;5057783;28;942;-39
2022/06/30 03:23:15;;;;;;;;;;;29.20;42.10;;;;;;5057832;28;1127;-38
2022/06/30 03:25:42;;;;;;;;;;;29.10;42.30;;;;;;5057371;28;1128;-40
2022/06/30 03:28:08;;;;;;;;;;;29.10;43.60;;;;;;5057735;28;977;-38
2022/06/30 03:30:35;;;;;;;;;;;29.00;42.40;;;;;;5057419;28;1155;-40
2022/06/30 03:33:02;;;;;;;;;;;29.00;42.50;;;;;;5056937;28;1898;-39
2022/06/30 03:35:30;;;;;;;;;;;28.90;42.50;;;;;;5057798;28;954;-38
2022/06/30 03:37:57;;;;;;;;;;;29.00;42.40;;;;;;5059701;28;1009;-38
2022/06/30 03:40:25;;;;;;;;;;;28.90;43.30;;;;;;5061404;28;984;-38
2022/06/30 03:42:52;;;;;;;;;;;29.00;42.20;;;;;;5060867;28;982;-37
2022/06/30 03:45:19;;;;;;;;;;;29.00;42.00;;;;;;5061026;28;994;-39
2022/06/30 03:47:45;;;;;;;;;;;29.10;42.00;;;;;;5060483;28;954;-40
2022/06/30 03:50:12;;;;;;;;;;;29.10;41.90;;;;;;5060896;28;930;-40
2022/06/30 03:52:39;;;;;;;;;;;29.10;41.80;;;;;;5060441;28;978;-37
2022/06/30 03:55:06;;;;;;;;;;;29.10;41.90;;;;;;5060997;28;980;-40
2022/06/30 03:57:34;;;;;;;;;;;29.20;42.00;;;;;;5060773;28;1008;-39
2022/06/30 04:00:01;;;;;;;;;;;29.20;42.00;;;;;;5060418;28;942;-41
2022/06/30 04:02:28;;;;;;;;;;;29.20;41.90;;;;;;5060525;28;946;-40
2022/06/30 04:04:54;;;;;;;;;;;29.20;41.90;;;;;;5060462;28;994;-39
2022/06/30 04:07:22;;;;;;;;;;;29.20;41.90;;;;;;5060496;28;1030;-39
2022/06/30 04:09:48;;;;;;;;;;;29.20;41.90;;;;;;5060461;28;1052;-37
2022/06/30 04:12:15;;;;;;;;;;;29.20;42.20;;;;;;5060045;28;1033;-39
2022/06/30 04:14:43;;;;;;;;;;;29.10;42.20;;;;;;5059997;28;1898;-41
2022/06/30 04:17:10;;;;;;;;;;;29.10;42.20;;;;;;5060429;28;1072;-41
2022/06/30 04:19:37;;;;;;;;;;;29.10;42.30;;;;;;5060138;28;951;-39
2022/06/30 04:22:04;;;;;;;;;;;29.10;42.30;;;;;;5059478;28;1009;-37
2022/06/30 04:24:31;;;;;;;;;;;29.20;42.30;;;;;;5059478;28;1069;-41
2022/06/30 04:26:57;;;;;;;;;;;29.20;42.20;;;;;;5060172;28;969;-41
2022/06/30 04:29:24;;;;;;;;;;;29.20;42.20;;;;;;5059839;28;1197;-40
2022/06/30 04:34:37;;;;;;;;;;;29.20;42.40;;;;;;5059726;28;1902;-37
2022/06/30 04:37:04;;;;;;;;;;;29.20;42.30;;;;;;5059470;28;950;-40
2022/06/30 04:39:30;;;;;;;;;;;29.30;42.20;;;;;;5059499;28;1083;-39
2022/06/30 04:41:56;;;;;;;;;;;29.40;42.20;;;;;;5060284;28;1074;-40
2022/06/30 04:44:23;;;;;;;;;;;29.40;42.20;;;;;;5059090;28;977;-39
2022/06/30 04:46:50;;;;;;;;;;;29.30;42.30;;;;;;5059416;28;1017;-38
2022/06/30 04:49:18;;;;;;;;;;;29.30;42.50;;;;;;5059509;28;996;-40
2022/06/30 04:51:44;;;;;;;;;;;29.30;42.50;;;;;;5058917;28;980;-40
2022/06/30 04:54:11;;;;;;;;;;;29.20;42.70;;;;;;5058682;28;1902;-38
2022/06/30 04:56:38;;;;;;;;;;;29.20;42.70;;;;;;5058661;28;1836;-38
2022/06/30 04:59:04;;;;;;;;;;;29.20;42.80;;;;;;5058822;28;973;-37
2022/06/30 05:01:31;;;;;;;;;;;29.10;42.80;;;;;;5058006;28;998;-36
2022/06/30 05:03:58;;;;;;;;;;;29.10;42.90;;;;;;5058654;28;1071;-37
2022/06/30 05:06:26;;;;;;;;;;;29.30;42.90;;;;;;5058501;28;937;-36
2022/06/30 05:08:53;;;;;;;;;;;29.30;42.80;;;;;;5058627;28;1011;-37
2022/06/30 05:11:20;;;;;;;;;;;29.20;42.90;;;;;;5058520;28;981;-36
2022/06/30 05:13:47;;;;;;;;;;;29.20;43.10;;;;;;5057621;28;1910;-36
2022/06/30 05:16:14;;;;;;;;;;;29.20;43.10;;;;;;5058421;28;988;-37
2022/06/30 05:18:40;;;;;;;;;;;29.10;43.50;;;;;;5058336;28;1334;-36
2022/06/30 05:21:07;;;;;;;;;;;29.10;43.30;;;;;;5057512;28;971;-36
2022/06/30 05:23:35;;;;;;;;;;;29.20;43.20;;;;;;5057303;28;1037;-36
2022/06/30 05:28:45;;;;;;;;;;;29.30;43.30;;;;;;5056896;28;1028;-36
2022/06/30 05:31:13;;;;;;;;;;;29.20;43.50;;;;;;5057874;28;1029;-37
2022/06/30 05:33:39;;;;;;;;;;;29.20;43.50;;;;;;5057775;28;1898;-36
2022/06/30 05:36:07;;;;;;;;;;;29.30;43.60;;;;;;5057228;28;954;-36
2022/06/30 05:38:35;;;;;;;;;;;29.30;43.30;;;;;;5057204;28;1011;-36
2022/06/30 05:41:02;;;;;;;;;;;29.30;43.60;;;;;;5057182;28;1029;-35
2022/06/30 05:43:28;;;;;;;;;;;29.40;43.60;;;;;;5057487;28;938;-35
2022/06/30 05:45:55;;;;;;;;;;;29.50;43.40;;;;;;5056619;28;1025;-36
2022/06/30 05:48:22;;;;;;;;;;;29.50;43.40;;;;;;5056737;28;1028;-35
2022/06/30 05:50:49;;;;;;;;;;;29.40;43.40;;;;;;5057231;28;1120;-35
2022/06/30 05:53:16;;;;;;;;;;;29.50;43.20;;;;;;5057252;28;1989;-39
2022/06/30 05:55:44;;;;;;;;;;;29.50;43.50;;;;;;5057300;28;976;-36
2022/06/30 05:58:12;;;;;;;;;;;29.50;43.40;;;;;;5057413;28;989;-37
2022/06/30 06:00:39;;;;;;;;;;;29.50;43.10;;;;;;5056627;28;996;-37
2022/06/30 06:03:06;;;;;;;;;;;29.50;43.40;;;;;;5056484;28;1033;-37
2022/06/30 06:05:32;;;;;;;;;;;29.60;43.00;;;;;;5057333;28;901;-37
2022/06/30 06:08:04;;;;;;;;;;;29.60;42.90;;;;;;5055783;28;942;-37
2022/06/30 06:10:31;;;;;;;;;;;29.60;42.80;;;;;;5056050;28;922;-37
2022/06/30 06:12:59;;;;;;;;;;;29.60;42.90;;;;;;5057015;28;1032;-38
2022/06/30 06:15:26;;;;;;;;;;;29.70;42.90;;;;;;5055489;28;1990;-37
2022/06/30 06:17:53;;;;;;;;;;;29.70;42.90;;;;;;5056669;28;962;-36
2022/06/30 06:20:20;;;;;;;;;;;29.60;43.00;;;;;;5056090;28;983;-37
2022/06/30 06:22:46;;;;;;;;;;;29.60;42.80;;;;;;5056362;28;948;-36
2022/06/30 06:25:14;;;;;;;;;;;29.60;42.80;;;;;;5054847;28;982;-37
2022/06/30 06:27:41;;;;;;;;;;;29.60;42.90;;;;;;5056783;28;873;-37
2022/06/30 06:30:10;;;;;;;;;;;29.70;43.00;;;;;;5055702;28;1190;-36
2022/06/30 06:32:37;;;;;;;;;;;29.70;42.60;;;;;;5055919;28;977;-36
2022/06/30 06:35:05;;;;;;;;;;;29.60;42.70;;;;;;5056106;28;1981;-38
2022/06/30 06:37:31;;;;;;;;;;;29.70;42.70;;;;;;5056199;28;1005;-36
2022/06/30 06:39:59;;;;;;;;;;;29.70;42.70;;;;;;5056061;28;977;-37
2022/06/30 06:42:25;;;;;;;;;;;29.70;42.80;;;;;;5056383;28;981;-36
2022/06/30 06:44:52;;;;;;;;;;;29.70;42.80;;;;;;5056085;28;1004;-36
2022/06/30 06:47:20;;;;;;;;;;;29.70;42.80;;;;;;5055515;28;975;-37
2022/06/30 06:49:47;;;;;;;;;;;29.80;42.70;;;;;;5055624;28;1219;-37
2022/06/30 06:52:14;;;;;;;;;;;29.80;42.60;;;;;;5055730;28;969;-37
2022/06/30 06:54:41;;;;;;;;;;;29.70;42.60;;;;;;5054766;28;1985;-35
2022/06/30 06:57:07;;;;;;;;;;;29.70;42.60;;;;;;5056277;28;942;-36
2022/06/30 06:59:36;;;;;;;;;;;29.70;42.70;;;;;;5055959;28;1080;-36
2022/06/30 07:02:03;;;;;;;;;;;29.70;42.60;;;;;;5055379;28;934;-40
2022/06/30 07:04:31;;;;;;;;;;;29.80;42.60;;;;;;5055312;28;893;-41
2022/06/30 07:06:58;;;;;;;;;;;29.70;42.60;;;;;;5055399;28;957;-38
2022/06/30 07:09:25;;;;;;;;;;;29.80;42.50;;;;;;5055281;28;988;-39
2022/06/30 07:11:52;;;;;;;;;;;29.80;42.50;;;;;;5054816;28;930;-42
2022/06/30 07:14:19;;;;;;;;;;;29.80;42.50;;;;;;5058137;28;1898;-39
2022/06/30 07:16:45;;;;;;;;;;;29.80;42.50;;;;;;5059980;28;1156;-35
2022/06/30 07:19:12;;;;;;;;;;;29.80;42.50;;;;;;5059347;28;980;-35
2022/06/30 07:21:41;;;;;;;;;;;29.80;42.40;;;;;;5058939;28;989;-38
2022/06/30 07:24:08;;;;;;;;;;;29.90;42.40;;;;;;5058995;28;977;-41
2022/06/30 07:26:34;;;;;;;;;;;29.90;42.30;;;;;;5057274;28;1016;-38
2022/06/30 07:29:01;;;;;;;;;;;29.80;42.40;;;;;;5056668;28;1166;-39
2022/06/30 07:31:28;;;;;;;;;;;29.90;42.40;;;;;;5058981;28;934;-37
2022/06/30 07:33:55;;;;;;;;;;;29.80;42.30;;;;;;5058163;28;2067;-35
2022/06/30 07:36:21;;;;;;;;;;;29.90;42.20;;;;;;5058998;28;958;-37
2022/06/30 07:38:50;;;;;;;;;;;29.90;42.30;;;;;;5058241;28;1014;-37
2022/06/30 07:41:17;;;;;;;;;;;29.90;42.20;;;;;;5059267;28;930;-37
2022/06/30 07:43:44;;;;;;;;;;;30.00;42.20;;;;;;5059085;28;1025;-36
2022/06/30 07:46:12;;;;;;;;;;;30.00;42.20;;;;;;5057965;28;1032;-39
2022/06/30 07:48:38;;;;;;;;;;;29.90;42.10;;;;;;5058047;28;984;-37
2022/06/30 07:51:06;;;;;;;;;;;29.90;42.10;;;;;;5058525;28;1056;-36
2022/06/30 07:53:32;;;;;;;;;;;29.90;42.10;;;;;;5057357;28;1025;-37
2022/06/30 07:56:00;;;;;;;;;;;29.90;42.10;;;;;;5057734;28;2032;-38
2022/06/30 07:58:27;;;;;;;;;;;30.00;42.20;;;;;;5057993;28;950;-42
2022/06/30 08:00:54;;;;;;;;;;;29.90;42.20;;;;;;5057203;28;1037;-41
2022/06/30 08:03:21;;;;;;;;;;;30.00;42.20;;;;;;5057156;28;938;-38
2022/06/30 08:05:47;;;;;;;;;;;30.00;42.20;;;;;;5057551;28;1026;-35
2022/06/30 08:08:14;;;;;;;;;;;29.80;42.30;;;;;;5056577;28;945;-35
2022/06/30 08:10:41;;;;;;;;;;;29.80;42.40;;;;;;5054907;28;1141;-36
2022/06/30 08:13:09;;;;;;;;;;;29.80;42.40;;;;;;5056534;28;1016;-36
2022/06/30 08:15:37;;;;;;;;;;;29.80;42.40;;;;;;5055825;28;1910;-35
2022/06/30 08:18:04;;;;;;;;;;;29.80;42.40;;;;;;5055774;28;1003;-35
2022/06/30 08:20:31;;;;;;;;;;;29.80;42.40;;;;;;5056846;28;1033;-36
2022/06/30 08:22:58;;;;;;;;;;;29.90;42.30;;;;;;5056672;28;985;-37
2022/06/30 08:25:25;;;;;;;;;;;30.00;42.20;;;;;;5055415;28;1021;-35
2022/06/30 08:27:52;;;;;;;;;;;30.00;42.10;;;;;;5055047;28;1024;-36
2022/06/30 08:30:21;;;;;;;;;;;30.00;42.20;;;;;;5054921;28;1024;-35
2022/06/30 08:32:47;;;;;;;;;;;30.00;42.00;;;;;;5055619;28;985;-36
2022/06/30 08:35:14;;;;;;;;;;;30.00;41.90;;;;;;5054897;28;1897;-35
2022/06/30 08:37:41;;;;;;;;;;;30.10;41.90;;;;;;5055277;28;981;-38
2022/06/30 08:42:53;;;;;;;;;;;30.20;41.90;;;;;;5054534;28;605;-37
2022/06/30 08:45:22;;;;;;;;;;;30.10;41.80;;;;;;5054778;28;891;-40
2022/06/30 08:47:49;;;;;;;;;;;30.20;41.80;;;;;;5055190;28;1069;-39
2022/06/30 08:50:17;;;;;;;;;;;30.20;41.70;;;;;;5055293;28;1006;-37
2022/06/30 08:52:46;;;;;;;;;;;30.20;41.60;;;;;;5054328;28;996;-37
2022/06/30 08:55:13;;;;;;;;;;;30.20;41.50;;;;;;5054191;28;1910;-39
2022/06/30 08:57:42;;;;;;;;;;;30.20;41.50;;;;;;5055255;28;998;-36
2022/06/30 09:00:09;;;;;;;;;;;30.20;41.50;;;;;;5054918;28;1007;-39
2022/06/30 09:02:37;;;;;;;;;;;30.20;41.50;;;;;;5053813;28;985;-39
2022/06/30 09:05:05;;;;;;;;;;;30.20;41.50;;;;;;5054735;28;1001;-38
2022/06/30 09:07:31;;;;;;;;;;;30.20;41.70;;;;;;5053975;28;966;-39
2022/06/30 09:09:58;;;;;;;;;;;30.20;41.60;;;;;;5054045;28;1018;-35
2022/06/30 09:12:26;;;;;;;;;;;30.20;41.70;;;;;;5056151;28;973;-38
2022/06/30 09:14:53;;;;;;;;;;;30.20;41.60;;;;;;5053802;28;1983;-37
2022/06/30 09:17:21;;;;;;;;;;;30.20;41.60;;;;;;5054069;28;989;-35
2022/06/30 09:19:57;;;;;;;;;;;30.20;41.50;;;;;;5055363;28;1052;-39
2022/06/30 09:22:25;;;;;;;;;;;30.30;41.40;;;;;;5054290;28;978;-37
2022/06/30 09:24:54;;;;;;;;;;;30.30;41.40;;;;;;5054509;28;1107;-37
2022/06/30 09:27:23;;;;;;;;;;;30.30;41.40;;;;;;5056017;28;862;-39
2022/06/30 09:29:52;;;;;;;;;;;30.30;41.50;;;;;;5055282;28;1202;-36
2022/06/30 09:32:20;;;;;;;;;;;30.30;41.60;;;;;;5053751;28;942;-38
2022/06/30 09:34:48;;;;;;;;;;;30.30;41.50;;;;;;5054205;28;1909;-36
2022/06/30 09:37:17;;;;;;;;;;;30.30;41.40;;;;;;5055009;28;922;-35
2022/06/30 09:39:44;;;;;;;;;;;30.30;41.50;;;;;;5055122;28;1000;-35
2022/06/30 09:42:11;;;;;;;;;;;30.30;41.40;;;;;;5054426;28;946;-36
2022/06/30 09:44:38;;;;;;;;;;;30.40;41.50;;;;;;5053994;28;962;-35
2022/06/30 09:47:06;;;;;;;;;;;30.40;41.50;;;;;;5054484;28;969;-37
2022/06/30 09:49:34;;;;;;;;;;;30.30;41.50;;;;;;5056206;28;984;-41
2022/06/30 09:52:02;;;;;;;;;;;30.30;41.60;;;;;;5054030;28;974;-39
2022/06/30 09:54:31;;;;;;;;;;;30.40;41.60;;;;;;5053795;28;1274;-38
2022/06/30 09:57:02;;;;;;;;;;;30.30;41.70;;;;;;5053348;28;1839;-41
2022/06/30 09:59:29;;;;;;;;;;;30.30;41.60;;;;;;5052870;28;1012;-38
2022/06/30 10:01:56;;;;;;;;;;;30.40;41.50;;;;;;5052236;28;889;-42
2022/06/30 10:04:23;;;;;;;;;;;30.30;41.50;;;;;;5053684;28;893;-45
2022/06/30 10:06:49;;;;;;;;;;;30.30;41.70;;;;;;5053686;28;1028;-45
2022/06/30 10:09:17;;;;;;;;;;;30.40;42.40;;;;;;5053463;28;1478;-45
2022/06/30 10:11:46;;;;;;;;;;;30.40;41.70;;;;;;5052136;28;922;-46
2022/06/30 10:14:15;;;;;;;;;;;30.40;41.70;;;;;;5052242;28;1020;-45
2022/06/30 10:16:43;;;;;;;;;;;30.50;41.70;;;;;;5051999;28;1977;-45
2022/06/30 10:19:10;;;;;;;;;;;30.50;41.80;;;;;;5052681;28;951;-46
2022/06/30 10:21:37;;;;;;;;;;;30.50;41.80;;;;;;5053791;28;1056;-45
2022/06/30 10:24:05;;;;;;;;;;;30.50;41.90;;;;;;5049085;28;938;-45
2022/06/30 10:29:17;;;;;;;;;;;30.50;41.90;;;;;;5051421;28;1237;-45
2022/06/30 10:31:48;;;;;;;;;;;30.50;41.90;;;;;;5052624;28;926;-46
2022/06/30 10:34:19;;;;;;;;;;;30.40;42.00;;;;;;5052545;28;988;-45
2022/06/30 10:36:48;;;;;;;;;;;30.50;42.00;;;;;;5053208;28;1949;-46
2022/06/30 10:39:19;;;;;;;;;;;30.50;41.90;;;;;;5052962;28;977;-46
2022/06/30 10:41:46;;;;;;;;;;;30.40;42.20;;;;;;5052838;28;918;-43
2022/06/30 10:44:15;;;;;;;;;;;30.50;42.10;;;;;;5053134;28;927;-44
2022/06/30 10:47:01;;;;;;;;;;;30.60;42.00;;;;;;5056740;28;865;-44
2022/06/30 10:49:29;;;;;;;;;;;30.50;42.00;;;;;;5058292;28;981;-38
2022/06/30 10:51:56;;;;;;;;;;;30.60;42.30;;;;;;5059481;28;954;-41
2022/06/30 10:54:29;;;;;;;;;;;30.60;41.90;;;;;;5057858;28;998;-41
2022/06/30 10:56:57;;;;;;;;;;;30.60;41.90;;;;;;5055730;28;2054;-42
2022/06/30 10:59:27;;;;;;;;;;;30.60;41.90;;;;;;5055653;28;1819;-42
2022/06/30 11:02:13;;;;;;;;;;;30.50;41.90;;;;;;5055863;28;928;-40
2022/06/30 11:04:42;;;;;;;;;;;30.60;41.90;;;;;;5056666;28;993;-41
2022/06/30 11:07:09;;;;;;;;;;;30.60;41.90;;;;;;5056443;28;929;-41
2022/06/30 11:10:06;;;;;;;;;;;30.50;42.00;;;;;;5055845;28;935;-41
2022/06/30 11:12:52;;;;;;;;;;;30.50;42.00;;;;;;5056885;28;924;-39
2022/06/30 11:15:19;;;;;;;;;;;30.60;42.10;;;;;;5056783;28;1902;-40
2022/06/30 11:17:46;;;;;;;;;;;30.60;41.90;;;;;;5054141;28;989;-40
2022/06/30 11:20:14;;;;;;;;;;;30.60;41.70;;;;;;5055174;28;994;-41
2022/06/30 11:22:42;;;;;;;;;;;30.60;41.80;;;;;;5045838;28;862;-41
2022/06/30 11:25:11;;;;;;;;;;;30.60;41.70;;;;;;5056673;28;981;-41
2022/06/30 11:27:37;;;;;;;;;;;30.60;41.80;;;;;;5057606;28;933;-42
2022/06/30 11:30:05;;;;;;;;;;;30.60;41.90;;;;;;5056340;28;1099;-40
2022/06/30 11:32:32;;;;;;;;;;;30.60;41.90;;;;;;5057091;28;1121;-38
2022/06/30 11:35:00;;;;;;;;;;;30.60;41.90;;;;;;5057750;28;958;-41
2022/06/30 11:37:29;;;;;;;;;;;30.60;41.80;;;;;;5056103;28;1906;-42
2022/06/30 11:39:59;;;;;;;;;;;30.60;41.70;;;;;;5057620;28;1023;-41
2022/06/30 11:42:27;;;;;;;;;;;30.60;41.90;;;;;;5057813;28;846;-42
2022/06/30 11:44:54;;;;;;;;;;;30.60;42.00;;;;;;5057497;28;1027;-40
2022/06/30 11:47:28;;;;;;;;;;;30.60;42.10;;;;;;5055753;28;989;-41
2022/06/30 11:49:57;;;;;;;;;;;30.70;41.80;;;;;;5058269;28;1050;-42
2022/06/30 11:52:25;;;;;;;;;;;30.80;41.40;;;;;;5058302;28;1486;-40
2022/06/30 11:54:55;;;;;;;;;;;30.50;41.70;;;;;;5057143;28;1035;-40
2022/06/30 11:57:23;;;;;;;;;;;30.60;41.50;;;;;;5056452;28;2379;-36
2022/06/30 11:59:51;;;;;;;;;;;30.70;41.30;;;;;;5056075;28;995;-38
2022/06/30 12:02:19;;;;;;;;;;;30.80;41.60;;;;;;5057299;28;1447;-40
2022/06/30 12:04:50;;;;;;;;;;;30.90;41.30;;;;;;5057969;28;993;-38
2022/06/30 12:07:18;;;;;;;;;;;30.90;41.20;;;;;;5056700;28;957;-37
2022/06/30 12:09:47;;;;;;;;;;;30.80;41.00;;;;;;5056742;28;1440;-40
2022/06/30 12:12:18;;;;;;;;;;;30.90;41.00;;;;;;5056295;28;874;-40
2022/06/30 12:14:46;;;;;;;;;;;30.90;41.10;;;;;;5057075;28;1514;-35
2022/06/30 12:17:21;;;;;;;;;;;30.90;40.80;;;;;;5056103;28;1984;-35
2022/06/30 12:19:48;;;;;;;;;;;30.90;40.80;;;;;;5056325;28;1895;-38
2022/06/30 12:22:15;;;;;;;;;;;30.80;40.80;;;;;;5056670;28;1505;-35
2022/06/30 12:24:45;;;;;;;;;;;30.80;40.70;;;;;;5056239;28;870;-36
2022/06/30 12:27:26;;;;;;;;;;;30.80;40.90;;;;;;5056404;28;941;-36
2022/06/30 12:29:56;;;;;;;;;;;30.80;40.90;;;;;;5055566;28;1043;-35
2022/06/30 12:32:23;;;;;;;;;;;30.80;41.00;;;;;;5056609;28;1044;-35
2022/06/30 12:34:51;;;;;;;;;;;30.80;40.70;;;;;;5055963;28;968;-35
2022/06/30 12:37:25;;;;;;;;;;;30.80;40.70;;;;;;5056213;28;1977;-35
2022/06/30 12:39:55;;;;;;;;;;;30.80;40.60;;;;;;5054545;28;1458;-36
2022/06/30 12:42:22;;;;;;;;;;;30.90;40.80;;;;;;5056071;28;993;-36
2022/06/30 12:44:50;;;;;;;;;;;30.90;40.50;;;;;;5056706;28;1037;-38
2022/06/30 12:47:17;;;;;;;;;;;30.90;40.70;;;;;;5055581;28;1057;-40
2022/06/30 12:49:44;;;;;;;;;;;30.90;40.80;;;;;;5056049;28;954;-36
2022/06/30 12:52:16;;;;;;;;;;;30.90;41.00;;;;;;5055872;28;993;-40
2022/06/30 12:54:53;;;;;;;;;;;30.90;41.20;;;;;;5055119;28;929;-39
2022/06/30 12:57:20;;;;;;;;;;;30.90;41.00;;;;;;5057532;28;1979;-40
2022/06/30 12:59:48;;;;;;;;;;;30.90;41.00;;;;;;5056258;28;972;-37
2022/06/30 13:02:17;;;;;;;;;;;31.00;41.30;;;;;;5055424;28;902;-36
2022/06/30 13:04:48;;;;;;;;;;;31.10;41.80;;;;;;5054683;28;933;-35
2022/06/30 13:07:15;;;;;;;;;;;31.10;41.80;;;;;;5055973;28;1001;-35
2022/06/30 13:09:43;;;;;;;;;;;31.10;41.60;;;;;;5055840;28;1052;-35
2022/06/30 13:12:11;;;;;;;;;;;31.00;41.50;;;;;;5055610;28;834;-36
2022/06/30 13:14:38;;;;;;;;;;;30.90;41.70;;;;;;5054542;28;933;-36
2022/06/30 13:17:05;;;;;;;;;;;31.00;41.60;;;;;;5053673;28;1971;-35
2022/06/30 13:19:34;;;;;;;;;;;31.10;41.60;;;;;;5054767;28;1494;-39
2022/06/30 13:22:01;;;;;;;;;;;31.00;41.40;;;;;;5055299;28;1004;-37
2022/06/30 13:24:28;;;;;;;;;;;31.10;40.90;;;;;;5054800;28;870;-38
2022/06/30 13:27:01;;;;;;;;;;;30.90;41.30;;;;;;5055551;28;947;-41
2022/06/30 13:29:28;;;;;;;;;;;30.90;41.60;;;;;;5054771;28;1024;-40
2022/06/30 13:31:59;;;;;;;;;;;30.90;41.40;;;;;;5055598;28;885;-39
2022/06/30 13:34:31;;;;;;;;;;;30.90;41.30;;;;;;5055996;28;941;-37
2022/06/30 13:37:00;;;;;;;;;;;31.00;41.10;;;;;;5055737;28;1894;-36
2022/06/30 13:39:27;;;;;;;;;;;30.90;41.20;;;;;;5054376;28;984;-36
2022/06/30 13:41:55;;;;;;;;;;;30.90;41.40;;;;;;5055396;28;1780;-37
2022/06/30 13:44:21;;;;;;;;;;;31.10;41.10;;;;;;5053338;28;877;-36
2022/06/30 13:46:49;;;;;;;;;;;31.10;40.80;;;;;;5054754;28;1603;-36
2022/06/30 13:49:17;;;;;;;;;;;31.10;41.00;;;;;;5053593;28;967;-36
2022/06/30 13:51:45;;;;;;;;;;;31.20;41.10;;;;;;5054284;28;2252;-39
2022/06/30 13:54:13;;;;;;;;;;;31.20;40.90;;;;;;5053527;28;1020;-36
2022/06/30 13:56:41;;;;;;;;;;;31.20;40.80;;;;;;5053031;28;1910;-36
2022/06/30 13:59:07;;;;;;;;;;;31.20;40.90;;;;;;5054546;28;980;-36
2022/06/30 14:01:34;;;;;;;;;;;31.30;40.80;;;;;;5053914;28;1066;-41
2022/06/30 14:04:02;;;;;;;;;;;31.30;40.80;;;;;;5054312;28;896;-37
2022/06/30 14:06:29;;;;;;;;;;;31.30;40.70;;;;;;5054455;28;1037;-39
2022/06/30 14:08:55;;;;;;;;;;;31.30;41.00;;;;;;5054175;28;1048;-39
2022/06/30 14:11:24;;;;;;;;;;;31.30;40.80;;;;;;5052831;28;974;-39
2022/06/30 14:13:51;;;;;;;;;;;31.40;40.70;;;;;;5052841;28;961;-38
2022/06/30 14:16:18;;;;;;;;;;;31.40;40.80;;;;;;5053335;28;1918;-39
2022/06/30 14:18:45;;;;;;;;;;;31.40;40.60;;;;;;5053192;28;977;-36
2022/06/30 14:21:12;;;;;;;;;;;31.50;40.60;;;;;;5053543;28;924;-37
2022/06/30 14:23:39;;;;;;;;;;;31.50;40.60;;;;;;5053941;28;913;-41
2022/06/30 14:26:06;;;;;;;;;;;31.50;40.60;;;;;;5053561;28;1592;-42
2022/06/30 14:28:34;;;;;;;;;;;31.30;40.80;;;;;;5053118;28;1009;-39
2022/06/30 14:31:01;;;;;;;;;;;31.30;40.90;;;;;;5053445;28;1056;-39
2022/06/30 14:33:29;;;;;;;;;;;31.20;41.10;;;;;;5053140;28;1068;-40
2022/06/30 14:35:56;;;;;;;;;;;31.20;41.30;;;;;;5054191;28;977;-43
2022/06/30 14:38:23;;;;;;;;;;;31.20;41.30;;;;;;5053609;28;1984;-41
2022/06/30 14:40:50;;;;;;;;;;;31.30;41.40;;;;;;5054846;28;992;-39
2022/06/30 14:43:16;;;;;;;;;;;31.30;41.20;;;;;;5053044;28;889;-40
2022/06/30 14:45:45;;;;;;;;;;;31.30;41.20;;;;;;5053005;28;1004;-40
2022/06/30 14:48:13;;;;;;;;;;;31.40;41.30;;;;;;5053819;28;1141;-40
2022/06/30 14:50:40;;;;;;;;;;;31.30;41.10;;;;;;5051636;28;1019;-40
2022/06/30 14:53:08;;;;;;;;;;;31.40;41.00;;;;;;5050998;28;921;-37
2022/06/30 14:55:35;;;;;;;;;;;31.40;40.90;;;;;;5052714;28;1050;-41
2022/06/30 14:58:02;;;;;;;;;;;31.50;40.80;;;;;;5053660;28;2060;-42